Time;durP1;ratioP1;P1;durP2;ratioP2;P2;SDS_P1;SDS_P2;PMS_P1;PMS_P2;Temp;Humidity;BMP_temperature;BMP_pressure;BME280_temperature;BME280_humidity;BME280_pressure;Samples;Min_cycle;Max_cycle;Signal;HPM_P1;HPM_P2
2022/06/17 00:02:13;;;;;;;1.48;1.00;;;;;;;32.83;25.12;98334.03;5090989;28;20025;-77
2022/06/17 00:04:39;;;;;;;2.08;1.13;;;;;;;32.73;25.21;98333.31;5085611;28;20045;-78
2022/06/17 00:07:14;;;;;;;1.17;0.98;;;;;;;32.45;25.29;98329.09;5083314;28;20040;-78
2022/06/17 00:09:41;;;;;;;0.90;0.90;;;;;;;32.49;25.17;98330.53;5083039;28;20475;-78
2022/06/17 00:12:11;;;;;;;2.10;1.35;;;;;;;32.29;25.92;98338.88;5083655;28;20492;-78
2022/06/17 00:15:11;;;;;;;0.73;0.73;;;;;;;32.23;26.01;98340.03;5081118;28;20117;-78
2022/06/17 00:17:23;;;;;;;6.63;1.20;;;;;;;32.04;26.43;98342.19;5083819;28;20048;-78
2022/06/17 00:19:50;;;;;;;1.17;1.00;;;;;;;32.13;25.87;98341.34;5080638;28;20038;-78
2022/06/17 00:22:16;;;;;;;1.67;0.85;;;;;;;32.32;25.92;98326.53;5083493;28;20035;-78
2022/06/17 00:24:42;;;;;;;1.55;1.45;;;;;;;32.48;25.16;98328.16;5082337;28;20036;-78
2022/06/17 00:27:13;;;;;;;1.95;0.80;;;;;;;32.47;25.01;98327.34;5079263;28;20166;-78
2022/06/17 00:29:39;;;;;;;1.10;1.00;;;;;;;32.37;24.68;98327.91;5080286;28;20036;-78
2022/06/17 00:32:05;;;;;;;2.03;0.80;;;;;;;31.76;25.42;98333.00;5084066;28;20028;-78
2022/06/17 00:34:31;;;;;;;0.60;0.60;;;;;;;31.51;25.22;98336.25;5082369;28;20119;-78
2022/06/17 00:37:00;;;;;;;1.10;0.70;;;;;;;31.71;24.89;98335.69;5079831;28;20387;-77
2022/06/17 00:39:33;;;;;;;1.02;0.70;;;;;;;31.57;25.39;98333.56;5083881;28;20384;-78
2022/06/17 00:42:05;;;;;;;0.50;0.50;;;;;;;31.57;25.29;98327.88;5082480;28;20028;-77
2022/06/17 00:44:55;;;;;;;0.50;0.50;;;;;;;31.81;25.19;98331.56;5083862;28;20032;-78
2022/06/17 00:47:38;;;;;;;0.47;0.47;;;;;;;31.79;25.14;98329.19;5079257;28;20055;-77
2022/06/17 00:50:13;;;;;;;0.32;0.32;;;;;;;31.80;24.84;98330.78;5082095;28;20464;-78
2022/06/17 00:52:50;;;;;;;0.60;0.60;;;;;;;31.70;25.14;98336.97;5084529;28;20115;-78
2022/06/17 00:55:40;;;;;;;0.50;0.50;;;;;;;31.63;25.24;98337.31;5086496;28;20028;-77
2022/06/17 00:58:20;;;;;;;0.65;0.60;;;;;;;31.77;24.96;98328.88;5079904;28;20090;-78
2022/06/17 01:00:48;;;;;;;0.40;0.40;;;;;;;31.70;25.50;98337.75;5079427;28;20046;-77
2022/06/17 01:03:19;;;;;;;0.50;0.50;;;;;;;31.70;24.75;98345.47;5078276;28;20421;-77
2022/06/17 01:05:54;;;;;;;0.88;0.60;;;;;;;31.85;24.21;98332.97;5082011;28;20051;-78
2022/06/17 01:11:16;;;;;;;0.60;0.60;;;;;;;31.97;24.03;98340.47;5086614;28;20059;-77
2022/06/17 01:13:48;;;;;;;0.60;0.60;;;;;;;31.95;24.16;98342.97;5083481;28;20098;-78
2022/06/17 01:16:15;;;;;;;0.50;0.50;;;;;;;31.91;24.37;98335.91;5084471;28;20040;-78
2022/06/17 01:18:44;;;;;;;0.50;0.50;;;;;;;31.64;24.61;98334.00;5084223;28;20040;-77
2022/06/17 01:21:24;;;;;;;0.35;0.35;;;;;;;31.54;24.76;98340.97;5084680;28;20393;-77
2022/06/17 01:23:52;;;;;;;0.40;0.40;;;;;;;31.74;24.85;98343.28;5081879;28;20032;-77
2022/06/17 01:26:18;;;;;;;1.50;1.00;;;;;;;31.16;25.22;98352.09;5083554;28;20040;-77
2022/06/17 01:28:44;;;;;;;0.80;0.80;;;;;;;31.08;25.21;98359.38;5081110;28;20042;-77
2022/06/17 01:31:11;;;;;;;0.75;0.57;;;;;;;31.27;25.08;98352.41;5080348;28;20040;-78
2022/06/17 01:33:40;;;;;;;0.50;0.50;;;;;;;31.47;25.17;98361.19;5080440;28;20500;-77
2022/06/17 01:36:19;;;;;;;0.60;0.50;;;;;;;31.53;24.77;98356.41;5083048;28;20043;-77
2022/06/17 01:38:50;;;;;;;0.50;0.47;;;;;;;31.71;24.42;98366.94;5083586;28;20035;-77
2022/06/17 01:41:21;;;;;;;1.65;0.70;;;;;;;31.84;24.34;98376.81;5086667;28;20044;-77
2022/06/17 01:43:58;;;;;;;0.50;0.50;;;;;;;31.85;24.27;98372.72;5085880;28;20228;-77
2022/06/17 01:46:34;;;;;;;0.60;0.57;;;;;;;31.65;24.34;98375.31;5084601;28;20486;-77
2022/06/17 01:49:18;;;;;;;0.52;0.50;;;;;;;31.70;24.31;98363.31;5085855;28;20553;-77
2022/06/17 01:52:08;;;;;;;1.38;0.60;;;;;;;31.92;24.06;98380.09;5084219;28;20043;-77
2022/06/17 01:55:15;;;;;;;0.40;0.40;;;;;;;31.47;24.62;98374.59;5084084;28;20380;-77
2022/06/17 01:58:01;;;;;;;0.50;0.50;;;;;;;31.67;23.95;98381.28;5023430;28;20570;-77
2022/06/17 02:00:29;;;;;;;1.05;0.88;;;;;;;31.51;25.81;98383.75;5077925;28;20142;-77
2022/06/17 02:03:05;;;;;;;0.63;0.60;;;;;;;31.49;24.91;98381.34;5082964;28;20072;-77
2022/06/17 02:05:33;;;;;;;1.95;0.75;;;;;;;31.53;24.96;98381.97;5081032;28;20028;-77
2022/06/17 02:08:01;;;;;;;0.60;0.60;;;;;;;31.22;25.18;98387.88;5081756;28;20115;-77
2022/06/17 02:10:33;;;;;;;0.70;0.70;;;;;;;31.42;25.35;98393.84;5083406;28;20368;-77
2022/06/17 02:13:02;;;;;;;1.50;0.85;;;;;;;31.55;25.32;98393.66;5089522;28;20085;-77
2022/06/17 02:15:28;;;;;;;2.78;0.88;;;;;;;31.42;25.52;98399.53;5084658;28;20395;-77
2022/06/17 02:17:55;;;;;;;0.73;0.60;;;;;;;31.47;25.16;98402.97;5083964;28;20476;-77
2022/06/17 02:20:24;;;;;;;0.60;0.47;;;;;;;31.68;24.72;98416.16;5084339;28;20040;-77
2022/06/17 02:22:52;;;;;;;0.60;0.60;;;;;;;31.64;24.08;98410.66;5084087;28;20059;-77
2022/06/17 02:25:23;;;;;;;0.70;0.50;;;;;;;31.51;24.38;98404.38;5085842;28;20052;-77
2022/06/17 02:27:56;;;;;;;0.45;0.45;;;;;;;31.37;24.57;98411.47;5083296;28;20179;-77
2022/06/17 02:30:24;;;;;;;0.68;0.68;;;;;;;31.24;24.76;98408.03;5085439;28;20397;-77
2022/06/17 02:32:53;;;;;;;0.50;0.50;;;;;;;31.28;24.80;98410.69;5085052;28;20028;-77
2022/06/17 02:35:43;;;;;;;1.00;0.63;;;;;;;31.60;24.42;98417.78;5087303;28;20024;-77
2022/06/17 02:38:16;;;;;;;0.40;0.40;;;;;;;31.71;24.66;98418.03;5083474;28;20024;-77
2022/06/17 02:40:50;;;;;;;0.75;0.52;;;;;;;31.68;24.45;98408.44;5085582;28;20308;-77
2022/06/17 02:43:27;;;;;;;0.68;0.50;;;;;;;31.92;24.19;98414.19;5083063;28;20380;-77
2022/06/17 02:46:15;;;;;;;0.65;0.65;;;;;;;31.89;24.42;98415.94;5082747;28;20036;-77
2022/06/17 02:48:49;;;;;;;0.60;0.60;;;;;;;31.99;24.10;98414.66;5086221;28;20036;-77
2022/06/17 02:51:15;;;;;;;0.80;0.80;;;;;;;32.04;24.43;98408.28;5088555;28;20025;-77
2022/06/17 02:53:42;;;;;;;0.77;0.68;;;;;;;32.17;24.72;98413.75;5090419;28;20020;-77
2022/06/17 02:56:25;;;;;;;1.48;0.80;;;;;;;32.25;24.01;98423.53;5089118;28;20020;-77
2022/06/17 02:59:21;;;;;;;0.73;0.73;;;;;;;32.05;24.85;98417.59;5085966;28;20040;-77
2022/06/17 03:01:51;;;;;;;0.73;0.60;;;;;;;32.28;24.35;98422.53;5090562;28;20028;-77
2022/06/17 03:04:20;;;;;;;0.80;0.80;;;;;;;32.26;24.87;98424.28;5088535;28;20048;-77
2022/06/17 03:06:49;;;;;;;0.93;0.90;;;;;;;32.02;25.10;98412.91;5090203;28;20072;-77
2022/06/17 03:09:33;;;;;;;0.80;0.80;;;;;;;31.51;25.66;98424.25;5088383;28;20028;-77
2022/06/17 03:12:04;;;;;;;0.70;0.70;;;;;;;31.92;25.54;98426.34;5088923;28;20380;-77
2022/06/17 03:14:41;;;;;;;0.80;0.80;;;;;;;32.31;25.04;98427.25;5088027;28;20036;-77
2022/06/17 03:17:11;;;;;;;1.02;0.80;;;;;;;32.65;24.91;98440.22;5086810;28;20475;-77
2022/06/17 03:19:39;;;;;;;1.23;0.68;;;;;;;32.76;24.41;98437.59;5087825;28;20044;-77
2022/06/17 03:22:07;;;;;;;0.70;0.70;;;;;;;32.89;24.51;98449.50;5088857;28;20028;-76
2022/06/17 03:25:00;;;;;;;1.55;0.90;;;;;;;32.64;24.90;98447.94;5090390;28;20097;-77
2022/06/17 03:27:38;;;;;;;0.70;0.70;;;;;;;32.21;25.20;98445.63;5088057;28;20036;-77
2022/06/17 03:30:05;;;;;;;2.03;0.73;;;;;;;32.46;25.65;98445.19;5085261;28;20111;-77
2022/06/17 03:32:37;;;;;;;0.90;0.80;;;;;;;32.85;25.20;98437.53;5089571;28;20233;-77
2022/06/17 03:35:04;;;;;;;0.80;0.68;;;;;;;33.19;24.92;98438.97;5080917;28;20032;-77
2022/06/17 03:37:50;;;;;;;0.85;0.80;;;;;;;33.56;25.02;98445.91;5089310;28;20036;-77
2022/06/17 03:40:28;;;;;;;1.00;1.00;;;;;;;33.18;24.79;98452.44;5082659;28;20071;-77
2022/06/17 03:43:21;;;;;;;0.85;0.82;;;;;;;32.55;25.67;98450.06;5088087;28;20032;-77
2022/06/17 03:46:01;;;;;;;0.70;0.70;;;;;;;33.00;25.55;98452.56;5085575;28;20102;-77
2022/06/17 03:48:42;;;;;;;0.88;0.88;;;;;;;33.44;25.21;98456.28;5086542;28;20039;-77
2022/06/17 03:51:14;;;;;;;;;;;;;;;33.88;25.85;98447.81;5091902;28;20563;-77
2022/06/17 03:53:42;;;;;;;1.10;1.10;;;;;;;34.38;25.91;98454.28;5089096;28;19970;-77
2022/06/17 03:56:12;;;;;;;1.13;1.00;;;;;;;34.55;25.82;98452.50;5086868;28;20032;-77
2022/06/17 03:58:40;;;;;;;;;;;;;;;34.60;25.94;98454.66;5090446;28;20434;-77
2022/06/17 04:01:28;;;;;;;1.67;1.17;;;;;;;34.78;24.55;98462.13;5089108;28;19916;-77
2022/06/17 04:03:57;;;;;;;1.10;1.00;;;;;;;34.86;24.79;98466.16;5092680;28;20032;-77
2022/06/17 04:06:29;;;;;;;1.55;0.98;;;;;;;34.82;25.15;98467.66;5093440;28;20056;-77
2022/06/17 04:08:59;;;;;;;1.42;1.13;;;;;;;35.03;26.13;98466.41;5091873;28;20031;-77
2022/06/17 04:11:35;;;;;;;1.23;1.02;;;;;;;34.80;24.90;98473.06;5088454;28;20107;-77
2022/06/17 04:14:05;;;;;;;1.40;1.15;;;;;;;34.15;25.49;98468.69;5081411;28;20253;-77
2022/06/17 04:16:46;;;;;;;1.77;1.27;;;;;;;33.93;26.22;98480.50;5090241;28;20047;-77
2022/06/17 04:19:15;;;;;;;1.55;1.30;;;;;;;34.04;26.27;98481.50;5086949;28;20040;-77
2022/06/17 04:21:41;;;;;;;1.73;1.58;;;;;;;34.14;25.97;98482.19;5088828;28;20058;-77
2022/06/17 04:24:18;;;;;;;4.82;1.10;;;;;;;34.18;26.08;98497.03;5085526;28;20341;-77
2022/06/17 04:26:48;;;;;;;3.20;1.75;;;;;;;34.05;25.98;98499.41;5087821;28;20040;-77
2022/06/17 04:29:21;;;;;;;2.80;2.33;;;;;;;33.63;26.05;98505.34;5088105;28;20036;-77
2022/06/17 04:31:56;;;;;;;3.20;1.73;;;;;;;33.12;27.20;98508.47;5087253;28;20036;-77
2022/06/17 04:34:22;;;;;;;4.53;3.55;;;;;;;32.07;28.60;98505.97;5086525;28;20032;-77
2022/06/17 04:37:00;;;;;;;4.18;3.35;;;;;;;32.05;28.92;98508.53;5084365;28;20040;-77
2022/06/17 04:39:47;;;;;;;3.63;3.28;;;;;;;31.82;29.02;98514.88;5084684;28;20036;-77
2022/06/17 04:42:20;;;;;;;5.65;4.13;;;;;;;32.20;28.41;98515.13;5080009;28;20111;-77
2022/06/17 04:44:49;;;;;;;4.15;3.78;;;;;;;32.00;28.74;98518.47;5089053;28;20497;-77
2022/06/17 04:47:20;;;;;;;4.50;3.90;;;;;;;31.90;29.17;98518.97;5081122;28;20472;-77
2022/06/17 04:50:01;;;;;;;6.35;3.78;;;;;;;32.01;29.15;98520.06;5080397;28;20139;-77
2022/06/17 04:52:34;;;;;;;3.65;3.30;;;;;;;32.01;28.92;98519.28;5082016;28;20392;-77
2022/06/17 04:55:03;;;;;;;3.72;3.35;;;;;;;32.52;28.26;98511.50;5079267;28;20024;-77
2022/06/17 04:57:30;;;;;;;7.13;3.97;;;;;;;32.84;28.10;98521.28;5082883;28;20758;-77
2022/06/17 05:00:00;;;;;;;4.13;3.72;;;;;;;33.00;27.89;98518.00;5092697;28;20061;-78
2022/06/17 05:02:30;;;;;;;6.95;5.88;;;;;;;32.68;27.94;98511.09;5099527;28;20526;-77
2022/06/17 05:04:59;;;;;;;6.35;4.32;;;;;;;32.56;28.55;98517.81;5084438;28;20036;-77
2022/06/17 05:07:29;;;;;;;4.88;4.38;;;;;;;31.92;29.21;98522.91;5082375;28;20034;-78
2022/06/17 05:10:04;;;;;;;5.28;4.78;;;;;;;31.93;29.58;98524.47;5085449;28;20103;-78
2022/06/17 05:12:40;;;;;;;6.57;5.60;;;;;;;31.86;29.88;98519.13;5088966;28;20028;-78
2022/06/17 05:15:16;;;;;;;7.47;5.28;;;;;;;31.77;29.46;98521.19;5090309;28;20036;-78
2022/06/17 05:17:42;;;;;;;7.47;5.47;;;;;;;32.06;29.04;98519.44;5083310;28;20102;-78
2022/06/17 05:20:15;;;;;;;4.80;4.30;;;;;;;31.88;29.03;98518.66;5088023;28;20492;-78
2022/06/17 05:23:03;;;;;;;9.30;7.10;;;;;;;31.43;30.05;98519.50;5089144;28;20385;-78
2022/06/17 05:25:33;;;;;;;7.03;6.32;;;;;;;31.30;30.52;98519.63;5087553;28;20213;-78
2022/06/17 05:27:59;;;;;;;8.23;6.30;;;;;;;31.92;29.66;98528.59;5089672;28;20472;-78
2022/06/17 05:30:30;;;;;;;7.72;5.95;;;;;;;31.93;29.08;98530.16;5093698;28;20032;-78
2022/06/17 05:32:56;;;;;;;;;;;;;;;31.73;29.76;98529.88;5089879;28;20029;-78
2022/06/17 05:35:23;;;;;;;9.75;8.02;;;;;;;31.77;29.40;98530.50;5092613;28;19927;-77
2022/06/17 05:37:49;;;;;;;10.48;8.38;;;;;;;31.79;29.84;98533.66;5091834;28;20032;-78
2022/06/17 05:40:16;;;;;;;8.50;7.32;;;;;;;31.93;29.66;98538.66;5089175;28;20499;-77
2022/06/17 05:42:45;;;;;;;14.10;10.48;;;;;;;31.92;29.38;98539.16;5085271;28;20035;-77
2022/06/17 05:45:21;;;;;;;11.48;9.15;;;;;;;32.12;29.34;98542.28;5086595;28;20036;-77
2022/06/17 05:47:47;;;;;;;14.65;9.98;;;;;;;32.08;29.74;98550.19;5090577;28;20039;-77
2022/06/17 05:50:15;;;;;;;10.93;8.13;;;;;;;32.15;29.55;98547.00;5088278;28;20040;-77
2022/06/17 05:52:52;;;;;;;10.32;9.23;;;;;;;31.99;29.73;98545.34;5089462;28;20020;-78
2022/06/17 05:55:19;;;;;;;14.65;11.40;;;;;;;31.59;30.53;98544.72;5088875;28;20028;-79
2022/06/17 05:57:45;;;;;;;14.77;11.02;;;;;;;31.97;30.89;98545.00;5084978;28;20040;-78
2022/06/17 06:00:13;;;;;;;12.48;9.63;;;;;;;32.18;30.00;98542.44;5084056;28;20047;-78
2022/06/17 06:02:39;;;;;;;10.55;9.43;;;;;;;32.52;30.53;98554.16;5087518;28;20048;-79
2022/06/17 06:05:07;;;;;;;10.25;8.70;;;;;;;32.66;30.17;98556.31;5087768;28;20028;-79
2022/06/17 06:07:33;;;;;;;10.40;8.68;;;;;;;33.01;30.76;98570.00;5084008;28;20040;-78
2022/06/17 06:09:59;;;;;;;11.30;10.13;;;;;;;33.46;29.18;98563.22;5083524;28;20024;-79
2022/06/17 06:15:12;;;;;;;14.20;11.85;;;;;;;32.67;29.95;98568.47;5085334;28;20043;-79
2022/06/17 06:17:38;;;;;;;13.27;11.77;;;;;;;32.23;29.97;98570.97;5084652;28;20097;-79
2022/06/17 06:20:05;;;;;;;13.77;11.35;;;;;;;32.39;30.03;98569.84;5087308;28;20046;-80
2022/06/17 06:22:31;;;;;;;12.38;10.43;;;;;;;32.34;29.65;98571.28;5082604;28;20028;-79
2022/06/17 06:24:57;;;;;;;15.57;11.60;;;;;;;32.35;30.34;98574.91;5082745;28;20117;-79
2022/06/17 06:27:23;;;;;;;13.10;11.20;;;;;;;31.80;31.11;98579.88;5087189;28;20044;-77
2022/06/17 06:29:49;;;;;;;11.82;10.20;;;;;;;31.95;30.63;98573.06;5090494;28;20036;-77
2022/06/17 06:32:15;;;;;;;13.25;11.40;;;;;;;32.32;30.36;98584.38;5082261;28;20047;-78
2022/06/17 06:34:42;;;;;;;14.50;12.93;;;;;;;32.68;30.00;98585.03;5083551;28;20496;-78
2022/06/17 06:37:08;;;;;;;11.30;9.82;;;;;;;33.18;29.97;98589.06;5083089;28;20040;-78
2022/06/17 06:39:34;;;;;;;10.73;8.77;;;;;;;33.76;29.18;98579.13;5077165;28;20074;-79
2022/06/17 06:42:00;;;;;;;11.55;9.82;;;;;;;33.97;27.67;98577.97;5081472;28;20529;-79
2022/06/17 06:44:26;;;;;;;10.07;8.52;;;;;;;34.27;27.79;98584.50;5082225;28;20399;-80
2022/06/17 06:46:53;;;;;;;9.32;8.32;;;;;;;33.81;27.48;98590.66;5087275;28;20035;-79
2022/06/17 06:49:19;;;;;;;13.07;9.27;;;;;;;32.86;28.37;98598.38;5091213;28;20028;-79
2022/06/17 06:51:45;;;;;;;10.52;8.93;;;;;;;32.59;29.37;98598.50;5090583;28;20494;-78
2022/06/17 06:54:11;;;;;;;10.98;9.82;;;;;;;31.88;30.12;98589.66;5088006;28;20031;-79
2022/06/17 06:56:37;;;;;;;10.98;9.32;;;;;;;31.54;30.78;98596.47;5086356;28;20038;-79
2022/06/17 06:59:03;;;;;;;11.50;10.30;;;;;;;32.16;30.28;98599.72;5080301;28;20032;-78
2022/06/17 07:01:29;;;;;;;10.50;9.40;;;;;;;31.90;29.49;98602.09;5086825;28;20524;-79
2022/06/17 07:03:55;;;;;;;11.13;9.85;;;;;;;32.36;29.38;98607.72;5090180;28;20062;-78
2022/06/17 07:06:21;;;;;;;10.45;9.35;;;;;;;32.31;29.01;98599.84;5090898;28;20114;-78
2022/06/17 07:08:47;;;;;;;9.95;9.00;;;;;;;32.19;29.11;98597.97;5092486;28;20039;-79
2022/06/17 07:11:16;;;;;;;11.90;10.70;;;;;;;32.33;28.93;98595.25;5092641;28;20028;-79
2022/06/17 07:13:42;;;;;;;12.40;10.27;;;;;;;31.92;29.38;98593.13;5092990;28;20044;-78
2022/06/17 07:16:09;;;;;;;9.98;8.75;;;;;;;32.78;28.62;98594.31;5093863;28;20048;-77
2022/06/17 07:18:37;;;;;;;8.90;8.10;;;;;;;32.31;28.88;98585.63;5094331;28;20503;-78
2022/06/17 07:21:06;;;;;;;11.80;8.65;;;;;;;32.11;29.28;98591.06;5088017;28;20040;-77
2022/06/17 07:23:36;;;;;;;9.63;8.68;;;;;;;31.75;29.96;98601.19;5092020;28;20070;-78
2022/06/17 07:26:06;;;;;;;9.20;8.30;;;;;;;32.11;29.13;98593.91;5081645;28;20036;-78
2022/06/17 07:28:33;;;;;;;9.43;8.50;;;;;;;32.27;28.75;98590.72;5088948;28;20059;-78
2022/06/17 07:31:00;;;;;;;9.90;8.85;;;;;;;32.23;29.09;98595.78;5085567;28;20028;-78
2022/06/17 07:33:29;;;;;;;11.02;8.52;;;;;;;32.39;28.34;98601.91;5085921;28;20077;-78
2022/06/17 07:35:59;;;;;;;11.63;10.43;;;;;;;32.21;28.30;98598.31;5102177;28;20076;-77
2022/06/17 07:41:15;;;;;;;14.55;12.85;;;;;;;31.26;30.05;98597.66;5091829;28;19943;-78
2022/06/17 07:43:41;;;;;;;22.27;14.52;;;;;;;31.01;30.62;98597.94;5085819;28;20020;-78
2022/06/17 07:46:08;;;;;;;12.35;11.07;;;;;;;30.84;30.48;98605.91;5094945;28;20043;-78
2022/06/17 07:48:38;;;;;;;16.13;12.50;;;;;;;30.77;30.40;98609.81;5094482;28;20032;-78
2022/06/17 07:51:05;;;;;;;16.13;11.70;;;;;;;31.41;29.66;98615.69;5087602;28;20032;-78
2022/06/17 07:53:34;;;;;;;21.25;17.13;;;;;;;30.72;30.65;98613.28;5085502;28;20111;-78
2022/06/17 07:56:03;;;;;;;18.13;13.88;;;;;;;31.05;30.07;98618.44;5091163;28;20035;-77
2022/06/17 07:58:29;;;;;;;19.02;13.55;;;;;;;31.22;29.99;98616.91;5088000;28;20489;-78
2022/06/17 08:00:56;;;;;;;17.85;13.45;;;;;;;31.32;29.92;98624.94;5089452;28;20032;-79
2022/06/17 08:03:22;;;;;;;17.55;13.70;;;;;;;31.07;30.46;98627.25;5088659;28;20032;-78
2022/06/17 08:05:52;;;;;;;17.25;13.55;;;;;;;31.48;29.58;98623.13;5087497;28;20028;-78
2022/06/17 08:08:23;;;;;;;18.45;14.88;;;;;;;30.72;30.12;98630.28;5085202;28;20473;-78
2022/06/17 08:10:53;;;;;;;19.60;14.85;;;;;;;30.54;30.49;98613.19;5083202;28;20032;-79
2022/06/17 08:13:19;;;;;;;15.85;13.73;;;;;;;30.83;29.98;98626.22;5088913;28;20036;-78
2022/06/17 08:15:47;;;;;;;17.42;13.82;;;;;;;31.00;30.35;98628.34;5088830;28;20036;-78
2022/06/17 08:18:13;;;;;;;16.95;12.35;;;;;;;31.29;30.33;98639.31;5085609;28;20031;-78
2022/06/17 08:20:41;;;;;;;17.13;14.10;;;;;;;31.23;30.57;98632.66;5088763;28;20578;-77
2022/06/17 08:23:08;;;;;;;16.10;13.65;;;;;;;31.62;30.25;98643.16;5087330;28;20389;-77
2022/06/17 08:25:36;;;;;;;16.27;13.10;;;;;;;31.79;30.85;98635.09;5087874;28;20085;-77
2022/06/17 08:28:08;;;;;;;15.88;13.07;;;;;;;31.12;30.51;98635.16;5093389;28;20040;-77
2022/06/17 08:30:51;;;;;;;12.45;11.15;;;;;;;32.30;29.66;98644.53;5091456;28;20036;-77
2022/06/17 08:33:19;;;;;;;13.40;11.85;;;;;;;33.05;28.54;98650.34;5088282;28;20028;-77
2022/06/17 08:35:48;;;;;;;15.65;10.63;;;;;;;33.08;27.65;98655.84;5090141;28;20032;-77
2022/06/17 08:38:16;;;;;;;14.15;12.45;;;;;;;33.25;27.38;98654.19;5091497;28;20047;-77
2022/06/17 08:40:51;;;;;;;12.95;11.57;;;;;;;32.47;28.28;98651.44;5093099;28;20042;-77
2022/06/17 08:43:41;;;;;;;15.18;11.98;;;;;;;32.39;28.40;98650.22;5090797;28;20078;-77
2022/06/17 08:46:16;;;;;;;11.38;10.25;;;;;;;32.36;28.83;98647.53;5098614;28;20051;-77
2022/06/17 08:49:10;;;;;;;14.27;10.80;;;;;;;33.46;28.25;98642.97;5088296;28;20122;-78
2022/06/17 08:52:04;;;;;;;10.75;9.65;;;;;;;33.44;27.77;98649.91;5087582;28;20032;-77
2022/06/17 08:54:35;;;;;;;12.15;10.75;;;;;;;33.78;27.25;98645.75;5087079;28;20032;-77
2022/06/17 08:57:22;;;;;;;11.35;10.23;;;;;;;34.08;26.36;98652.31;5084286;28;20072;-77
2022/06/17 09:00:17;;;;;;;17.13;12.95;;;;;;;32.80;27.54;98656.41;5086037;28;20510;-78
2022/06/17 09:03:15;;;;;;;12.77;10.93;;;;;;;33.09;27.73;98654.59;5081517;28;20046;-77
2022/06/17 09:05:41;;;;;;;12.68;11.30;;;;;;;32.95;27.89;98668.69;5090258;28;20028;-77
2022/06/17 09:08:36;;;;;;;12.27;10.05;;;;;;;31.35;29.63;98663.75;5088412;28;20058;-78
2022/06/17 09:11:05;;;;;;;12.35;11.05;;;;;;;32.35;28.68;98669.47;5086734;28;20070;-78
2022/06/17 09:13:51;;;;;;;13.05;11.55;;;;;;;32.55;29.42;98680.38;5089781;28;20028;-78
2022/06/17 09:16:29;;;;;;;14.13;11.70;;;;;;;31.75;29.24;98669.34;5081396;28;20131;-78
2022/06/17 09:19:02;;;;;;;12.65;11.18;;;;;;;31.61;28.85;98678.47;5085723;28;20036;-78
2022/06/17 09:21:35;;;;;;;13.45;12.05;;;;;;;32.41;27.80;98675.31;5084645;28;20028;-78
2022/06/17 09:24:07;;;;;;;12.75;11.10;;;;;;;32.47;28.23;98690.44;5086322;28;20055;-78
2022/06/17 09:26:45;;;;;;;13.23;10.60;;;;;;;32.91;27.77;98682.31;5085400;28;20036;-78
2022/06/17 09:29:24;;;;;;;13.43;10.57;;;;;;;32.78;27.87;98693.09;5081953;28;20099;-80
2022/06/17 09:32:00;;;;;;;11.55;9.65;;;;;;;33.42;27.40;98691.56;5079090;28;20460;-80
2022/06/17 09:34:28;;;;;;;12.05;10.07;;;;;;;32.54;28.16;98687.31;5081482;28;20243;-80
2022/06/17 09:37:24;;;;;;;11.88;10.65;;;;;;;32.37;27.50;98688.91;5083407;28;20032;-80
2022/06/17 09:39:59;;;;;;;14.85;11.27;;;;;;;32.46;27.51;98688.88;5076406;28;20079;-81
2022/06/17 09:42:35;;;;;;;13.00;11.63;;;;;;;32.30;27.23;98687.16;5081796;28;20028;-81
2022/06/17 09:45:14;;;;;;;12.93;10.38;;;;;;;32.21;28.98;98695.69;5085569;28;20036;-80
2022/06/17 09:47:59;;;;;;;14.05;10.95;;;;;;;32.39;28.64;98695.69;5082780;28;20028;-80
2022/06/17 09:50:39;;;;;;;15.45;11.23;;;;;;;32.40;27.77;98696.47;5083583;28;20028;-80
2022/06/17 09:53:15;;;;;;;14.82;12.65;;;;;;;33.47;25.51;98696.56;5082784;28;20167;-81
2022/06/17 09:55:59;;;;;;;12.27;10.05;;;;;;;33.83;26.50;98695.56;5084601;28;20065;-80
2022/06/17 09:58:36;;;;;;;13.43;10.55;;;;;;;34.05;26.30;98693.22;5087121;28;20020;-81
2022/06/17 10:01:03;;;;;;;14.65;12.30;;;;;;;33.73;25.06;98700.53;5086488;28;20122;-78
2022/06/17 10:03:35;;;;;;;15.23;12.63;;;;;;;33.05;26.43;98708.03;5088845;28;20472;-79
2022/06/17 10:06:29;;;;;;;13.50;10.90;;;;;;;33.23;26.78;98695.78;5086133;28;20081;-79
2022/06/17 10:08:55;;;;;;;11.82;10.05;;;;;;;33.44;26.24;98689.78;5085750;28;20034;-78
2022/06/17 10:11:32;;;;;;;13.18;10.23;;;;;;;34.07;25.77;98702.81;5083860;28;20315;-78
2022/06/17 10:14:16;;;;;;;13.27;10.82;;;;;;;32.51;27.72;98696.81;5084002;28;20024;-78
2022/06/17 10:20:04;;;;;;;13.27;11.15;;;;;;;34.51;25.01;98711.47;5082789;28;20113;-78
2022/06/17 10:22:44;;;;;;;13.55;9.95;;;;;;;34.00;25.81;98702.41;5087079;28;20108;-78
2022/06/17 10:25:25;;;;;;;15.40;11.70;;;;;;;33.15;25.35;98694.53;5086332;28;20107;-79
2022/06/17 10:27:54;;;;;;;14.38;11.95;;;;;;;33.26;26.00;98709.81;5087560;28;20040;-78
2022/06/17 10:30:55;;;;;;;13.13;10.13;;;;;;;33.70;26.78;98710.06;5098803;27;20024;-79
2022/06/17 10:33:21;;;;;;;10.85;9.10;;;;;;;33.33;26.84;98709.47;5073385;28;20063;-78
2022/06/17 10:35:49;;;;;;;13.13;9.85;;;;;;;33.73;27.02;98709.09;5082583;28;20036;-78
2022/06/17 10:38:21;;;;;;;15.85;11.18;;;;;;;33.80;26.09;98707.94;5087347;28;20028;-79
2022/06/17 10:40:48;;;;;;;11.98;9.55;;;;;;;33.94;26.44;98698.63;5082864;28;20123;-79
2022/06/17 10:43:20;;;;;;;18.13;9.90;;;;;;;34.63;24.81;98699.00;5082301;28;20365;-78
2022/06/17 10:45:48;;;;;;;10.70;8.35;;;;;;;34.46;24.50;98714.19;5084292;28;20044;-79
2022/06/17 10:48:46;;;;;;;11.10;8.68;;;;;;;34.69;24.70;98713.34;5088402;28;20024;-79
2022/06/17 10:51:12;;;;;;;13.48;8.20;;;;;;;34.62;24.32;98714.53;5083093;28;20047;-78
2022/06/17 10:53:46;;;;;;;10.10;7.68;;;;;;;33.65;25.39;98712.78;5084923;28;20033;-78
2022/06/17 10:56:25;;;;;;;14.02;9.50;;;;;;;33.72;24.76;98712.44;5088760;28;20035;-79
2022/06/17 10:59:01;;;;;;;9.18;7.20;;;;;;;33.22;26.13;98719.81;5087732;28;20044;-78
2022/06/17 11:01:47;;;;;;;12.05;8.85;;;;;;;33.14;25.51;98712.91;5082987;28;20032;-78
2022/06/17 11:04:18;;;;;;;11.63;8.88;;;;;;;32.99;26.02;98709.13;5101679;28;20495;-79
2022/06/17 11:06:59;;;;;;;11.52;9.25;;;;;;;33.02;26.13;98711.84;5086067;28;20032;-79
2022/06/17 11:09:51;;;;;;;10.60;8.32;;;;;;;33.05;25.84;98713.72;5084705;28;20036;-80
2022/06/17 11:12:24;;;;;;;13.23;9.52;;;;;;;33.11;25.61;98711.81;5081482;28;20048;-79
2022/06/17 11:14:55;;;;;;;13.82;8.63;;;;;;;32.43;27.32;98713.38;5083539;28;20036;-79
2022/06/17 11:17:26;;;;;;;;;;;;;;;32.98;26.13;98702.66;5085303;28;20044;-78
2022/06/17 11:19:57;;;;;;;14.32;9.88;;;;;;;33.24;26.05;98700.19;5080595;28;20451;-78
2022/06/17 11:22:36;;;;;;;13.95;9.38;;;;;;;33.03;26.87;98704.88;5085435;28;20136;-77
2022/06/17 11:25:21;;;;;;;13.80;9.80;;;;;;;33.35;25.42;98704.06;5087242;28;20131;-78
2022/06/17 11:27:57;;;;;;;10.18;8.27;;;;;;;32.80;26.95;98699.06;5086019;28;20036;-78
2022/06/17 11:30:26;;;;;;;15.52;10.32;;;;;;;33.19;26.08;98704.47;5083991;28;20024;-78
2022/06/17 11:32:53;;;;;;;13.85;9.25;;;;;;;33.05;26.79;98708.03;5084302;28;20039;-78
2022/06/17 11:35:38;;;;;;;9.57;8.25;;;;;;;33.29;25.22;98697.47;5085078;28;20017;-78
2022/06/17 11:38:12;;;;;;;13.20;9.48;;;;;;;34.43;24.54;98710.25;5085625;28;20138;-78
2022/06/17 11:40:51;;;;;;;9.93;7.68;;;;;;;34.02;25.23;98706.34;5081262;28;20510;-78
2022/06/17 11:43:29;;;;;;;12.90;8.43;;;;;;;34.61;23.97;98698.69;5087330;28;20029;-81
2022/06/17 11:45:56;;;;;;;11.20;7.93;;;;;;;35.32;24.76;98694.66;5087321;28;20496;-82
2022/06/17 11:48:22;;;;;;;8.77;6.70;;;;;;;35.69;22.98;98687.16;5086451;28;20032;-82
2022/06/17 11:51:12;;;;;;;8.45;5.82;;;;;;;36.48;21.91;98684.75;5085542;28;20071;-82
2022/06/17 11:53:54;;;;;;;15.98;7.95;;;;;;;35.33;22.48;98694.19;5083360;28;20036;-82
2022/06/17 11:56:42;;;;;;;8.00;5.88;;;;;;;35.11;22.02;98699.56;5085527;28;20032;-82
2022/06/17 11:59:16;;;;;;;13.05;6.68;;;;;;;35.35;22.23;98702.25;5088293;28;20383;-81
2022/06/17 12:01:53;;;;;;;8.68;5.95;;;;;;;34.44;23.31;98711.06;5082678;28;20036;-82
2022/06/17 12:04:46;;;;;;;11.40;5.38;;;;;;;35.11;23.47;98705.25;5079394;28;20446;-82
2022/06/17 12:07:45;;;;;;;5.28;4.53;;;;;;;33.25;23.54;98704.63;5084644;28;20082;-83
2022/06/17 12:10:25;;;;;;;6.43;4.43;;;;;;;35.15;24.38;98702.22;5083816;28;20032;-81